Time;durP1;ratioP1;P1;durP2;ratioP2;P2;SDS_P1;SDS_P2;PMS_P1;PMS_P2;Temp;Humidity;BMP_temperature;BMP_pressure;BME280_temperature;BME280_humidity;BME280_pressure;Samples;Min_cycle;Max_cycle;Signal;HPM_P1;HPM_P2
2023/07/05 00:01:36;;;;;;;8.20;4.75;;;;;;;;;;5010438;28;20120;-62
2023/07/05 00:04:02;;;;;;;9.65;5.18;;;;;;;;;;5009128;28;20038;-61
2023/07/05 00:06:28;;;;;;;10.85;6.28;;;;;;;;;;5008193;28;20046;-61
2023/07/05 00:08:54;;;;;;;10.68;5.50;;;;;;;;;;5010237;28;20042;-61
2023/07/05 00:11:20;;;;;;;9.60;5.95;;;;;;;;;;5017426;28;20115;-61
2023/07/05 00:13:48;;;;;;;15.70;6.57;;;;;;;;;;5010395;28;20468;-61
2023/07/05 00:16:14;;;;;;;10.48;5.72;;;;;;;;;;5008799;28;20049;-61
2023/07/05 00:18:43;;;;;;;9.35;5.57;;;;;;;;;;5004424;28;20038;-61
2023/07/05 00:21:10;;;;;;;10.40;6.28;;;;;;;;;;5009635;28;20094;-61
2023/07/05 00:23:39;;;;;;;9.32;5.10;;;;;;;;;;5009882;28;20496;-61
2023/07/05 00:26:06;;;;;;;13.18;5.65;;;;;;;;;;5009923;28;20034;-60
2023/07/05 00:28:35;;;;;;;12.43;5.95;;;;;;;;;;5009976;28;20407;-61
2023/07/05 00:31:04;;;;;;;16.80;6.75;;;;;;;;;;5009953;28;20073;-61
2023/07/05 00:33:31;;;;;;;16.52;6.38;;;;;;;;;;5009537;28;20042;-61
2023/07/05 00:35:57;;;;;;;13.88;6.18;;;;;;;;;;5009908;28;20048;-60
2023/07/05 00:38:23;;;;;;;13.05;7.03;;;;;;;;;;5009877;28;20610;-61
2023/07/05 00:40:49;;;;;;;13.27;6.57;;;;;;;;;;5004597;28;20069;-61
2023/07/05 00:43:16;;;;;;;14.80;6.97;;;;;;;;;;5008793;28;20041;-61
2023/07/05 00:45:54;;;;;;;12.07;6.40;;;;;;;;;;5008541;28;20049;-60
2023/07/05 00:48:33;;;;;;;11.90;5.45;;;;;;;;;;5007144;28;20057;-61
2023/07/05 00:51:02;;;;;;;12.70;6.40;;;;;;;;;;5010251;28;20049;-60
2023/07/05 00:53:30;;;;;;;14.85;6.93;;;;;;;;;;5014056;28;20077;-61
2023/07/05 00:55:59;;;;;;;12.95;5.93;;;;;;;;;;5003398;28;20089;-60
2023/07/05 00:58:26;;;;;;;11.32;6.30;;;;;;;;;;4990071;28;20049;-59
2023/07/05 01:00:55;;;;;;;12.23;6.38;;;;;;;;;;5010160;28;20042;-59
2023/07/05 01:03:22;;;;;;;10.85;6.15;;;;;;;;;;4991840;28;20037;-61
2023/07/05 01:05:55;;;;;;;11.15;5.80;;;;;;;;;;5008110;28;20372;-60
2023/07/05 01:08:21;;;;;;;11.38;6.10;;;;;;;;;;5009840;28;20046;-61
2023/07/05 01:10:52;;;;;;;13.55;6.53;;;;;;;;;;5009886;28;20034;-61
2023/07/05 01:13:25;;;;;;;9.68;5.95;;;;;;;;;;5009897;28;20034;-61
2023/07/05 01:15:57;;;;;;;11.45;6.47;;;;;;;;;;5022214;28;20145;-61
2023/07/05 01:18:34;;;;;;;10.60;6.72;;;;;;;;;;5009118;28;20060;-60
2023/07/05 01:21:21;;;;;;;11.05;6.70;;;;;;;;;;5013498;28;20042;-61
2023/07/05 01:26:24;;;;;;;12.27;7.20;;;;;;;;;;4976473;28;20057;-60
2023/07/05 01:28:49;;;;;;;;;;;;;;;;;;4985099;28;20122;-61
2023/07/05 01:31:20;;;;;;;12.20;7.03;;;;;;;;;;4988257;28;20000;-61
2023/07/05 01:34:03;;;;;;;13.88;6.88;;;;;;;;;;4973298;28;20529;-61
2023/07/05 01:36:30;;;;;;;10.32;6.47;;;;;;;;;;4970061;28;20038;-61
2023/07/05 01:38:56;;;;;;;11.95;6.80;;;;;;;;;;4970108;28;20043;-62
2023/07/05 01:41:22;;;;;;;14.05;7.68;;;;;;;;;;4974233;28;20043;-61
2023/07/05 01:43:49;;;;;;;14.35;7.45;;;;;;;;;;4984152;23;20389;-78
2023/07/05 01:46:36;;;;;;;13.80;7.65;;;;;;;;;;4974267;28;20041;-78
2023/07/05 01:49:15;;;;;;;15.30;8.48;;;;;;;;;;4974970;28;20500;-77
2023/07/05 01:51:56;;;;;;;13.27;7.50;;;;;;;;;;4968584;28;20046;-77
2023/07/05 01:54:24;;;;;;;15.05;8.27;;;;;;;;;;4962698;28;20038;-75
2023/07/05 01:57:11;;;;;;;16.48;7.97;;;;;;;;;;4956395;28;20112;-75
2023/07/05 01:59:44;;;;;;;16.35;8.35;;;;;;;;;;4976829;28;20035;-76
2023/07/05 02:02:11;;;;;;;13.93;8.02;;;;;;;;;;4962266;28;20045;-76
2023/07/05 02:04:38;;;;;;;19.52;8.77;;;;;;;;;;4958856;28;20045;-76
2023/07/05 02:07:05;;;;;;;14.82;7.45;;;;;;;;;;4961698;28;20114;-76
2023/07/05 02:09:35;;;;;;;17.65;8.02;;;;;;;;;;4939494;28;20098;-76
2023/07/05 02:12:01;;;;;;;15.77;8.77;;;;;;;;;;4950902;28;20131;-75
2023/07/05 02:14:27;;;;;;;13.32;7.80;;;;;;;;;;4967491;28;20106;-75
2023/07/05 02:16:53;;;;;;;18.80;8.70;;;;;;;;;;4991012;23;20045;-62
2023/07/05 02:19:19;;;;;;;16.90;9.45;;;;;;;;;;4988279;28;20038;-60
2023/07/05 02:21:46;;;;;;;14.50;9.05;;;;;;;;;;5004983;28;20045;-60
2023/07/05 02:24:12;;;;;;;16.35;9.02;;;;;;;;;;5000562;28;20034;-60
2023/07/05 02:26:38;;;;;;;15.32;8.82;;;;;;;;;;4993698;28;20046;-60
2023/07/05 02:29:07;;;;;;;11.52;8.00;;;;;;;;;;4973333;28;20046;-62
2023/07/05 02:31:33;;;;;;;21.27;9.10;;;;;;;;;;4977526;28;20137;-62
2023/07/05 02:34:01;;;;;;;15.10;9.50;;;;;;;;;;4989805;28;20122;-62
2023/07/05 02:36:27;;;;;;;15.52;8.90;;;;;;;;;;4981192;28;20049;-62
2023/07/05 02:38:56;;;;;;;15.60;8.65;;;;;;;;;;4977530;28;20049;-63
2023/07/05 02:41:22;;;;;;;13.35;8.70;;;;;;;;;;4981589;28;20513;-61
2023/07/05 02:43:50;;;;;;;16.73;10.02;;;;;;;;;;4980284;28;20412;-61
2023/07/05 02:46:16;;;;;;;19.98;9.73;;;;;;;;;;5015615;23;20475;-62
2023/07/05 02:48:42;;;;;;;14.75;9.63;;;;;;;;;;5004398;28;20411;-61
2023/07/05 02:51:11;;;;;;;18.45;10.18;;;;;;;;;;5006579;28;20047;-61
2023/07/05 02:53:37;;;;;;;18.63;9.90;;;;;;;;;;4997659;28;20053;-62
2023/07/05 02:56:04;;;;;;;24.25;11.15;;;;;;;;;;4982228;28;20117;-63
2023/07/05 02:58:30;;;;;;;19.10;10.50;;;;;;;;;;4991361;28;20077;-63
2023/07/05 03:00:56;;;;;;;16.38;10.98;;;;;;;;;;4988467;28;20049;-63
2023/07/05 03:03:22;;;;;;;19.65;11.68;;;;;;;;;;4994802;28;20065;-65
2023/07/05 03:05:55;;;;;;;21.42;11.68;;;;;;;;;;4978491;28;20058;-67
2023/07/05 03:08:21;;;;;;;19.45;11.32;;;;;;;;;;4982701;28;20501;-66
2023/07/05 03:10:47;;;;;;;19.75;11.43;;;;;;;;;;4984608;28;20084;-64
2023/07/05 03:13:13;;;;;;;21.15;12.82;;;;;;;;;;4995050;28;20513;-65
2023/07/05 03:15:39;;;;;;;16.70;11.38;;;;;;;;;;4991309;28;20043;-65
2023/07/05 03:18:05;;;;;;;18.70;11.38;;;;;;;;;;5013518;23;20038;-66
2023/07/05 03:20:31;;;;;;;17.48;11.27;;;;;;;;;;5004767;28;20052;-65
2023/07/05 03:22:57;;;;;;;17.17;11.48;;;;;;;;;;5003045;28;20038;-66
2023/07/05 03:25:24;;;;;;;17.30;12.50;;;;;;;;;;5001344;28;20049;-66
2023/07/05 03:27:50;;;;;;;16.00;11.60;;;;;;;;;;4995501;28;20046;-66
2023/07/05 03:30:16;;;;;;;18.40;12.15;;;;;;;;;;4996983;28;20448;-66
2023/07/05 03:32:43;;;;;;;16.58;11.25;;;;;;;;;;5070202;23;20194;-64
2023/07/05 03:35:09;;;;;;;20.00;12.60;;;;;;;;;;4978272;28;20074;-65
2023/07/05 03:37:35;;;;;;;19.02;12.23;;;;;;;;;;4978591;28;20039;-64
2023/07/05 03:40:02;;;;;;;20.13;13.05;;;;;;;;;;4983813;28;20181;-65
2023/07/05 03:42:28;;;;;;;21.15;13.55;;;;;;;;;;4981964;28;20042;-64
2023/07/05 03:44:54;;;;;;;16.70;11.88;;;;;;;;;;4986864;28;20045;-65
2023/07/05 03:47:20;;;;;;;16.00;11.88;;;;;;;;;;4989614;28;20035;-66
2023/07/05 03:49:46;;;;;;;16.08;11.55;;;;;;;;;;4978665;28;20045;-64
2023/07/05 03:52:12;;;;;;;18.08;11.80;;;;;;;;;;4980772;28;20129;-64
2023/07/05 03:54:38;;;;;;;19.67;12.45;;;;;;;;;;4974206;28;20069;-65
2023/07/05 03:57:05;;;;;;;19.02;13.25;;;;;;;;;;4984580;28;20500;-64
2023/07/05 03:59:31;;;;;;;21.05;13.75;;;;;;;;;;4975588;28;20039;-64
2023/07/05 04:01:57;;;;;;;19.63;13.32;;;;;;;;;;4979379;28;20050;-65
2023/07/05 04:04:23;;;;;;;18.90;11.98;;;;;;;;;;4970806;28;20070;-64
2023/07/05 04:06:49;;;;;;;19.67;13.27;;;;;;;;;;5022814;23;20064;-63
2023/07/05 04:09:15;;;;;;;16.13;12.25;;;;;;;;;;5003892;28;20125;-64
2023/07/05 04:11:41;;;;;;;16.98;12.82;;;;;;;;;;5004187;28;20519;-65
2023/07/05 04:14:07;;;;;;;17.90;12.57;;;;;;;;;;5008820;28;20041;-64
2023/07/05 04:16:39;;;;;;;17.45;12.38;;;;;;;;;;5003099;28;20457;-65
2023/07/05 04:19:05;;;;;;;16.02;11.38;;;;;;;;;;5001887;28;20030;-65
2023/07/05 04:21:32;;;;;;;17.63;12.85;;;;;;;;;;5001583;28;20439;-64
2023/07/05 04:23:59;;;;;;;18.92;12.40;;;;;;;;;;4998039;28;20037;-65
2023/07/05 04:26:26;;;;;;;17.80;11.75;;;;;;;;;;5000164;28;20034;-65
2023/07/05 04:28:52;;;;;;;16.55;11.07;;;;;;;;;;4999995;28;20034;-65
2023/07/05 04:31:25;;;;;;;14.95;10.52;;;;;;;;;;4990924;28;20038;-64
2023/07/05 04:33:51;;;;;;;15.55;10.07;;;;;;;;;;4991059;28;20038;-65
2023/07/05 04:36:17;;;;;;;14.82;9.57;;;;;;;;;;4981902;28;20053;-65
2023/07/05 04:38:43;;;;;;;15.00;8.07;;;;;;;;;;4998021;28;20036;-65
2023/07/05 04:41:09;;;;;;;13.32;8.60;;;;;;;;;;4994877;28;20118;-64
2023/07/05 04:43:35;;;;;;;11.63;5.78;;;;;;;;;;4996535;28;20061;-64
2023/07/05 04:46:01;;;;;;;10.98;6.13;;;;;;;;;;4995797;28;20515;-64
2023/07/05 04:48:29;;;;;;;10.65;5.28;;;;;;;;;;5004610;28;20538;-65
2023/07/05 04:50:55;;;;;;;9.52;4.88;;;;;;;;;;4994093;28;20037;-65
2023/07/05 04:53:22;;;;;;;10.80;4.55;;;;;;;;;;4996705;28;20049;-64
2023/07/05 04:55:49;;;;;;;8.23;4.20;;;;;;;;;;5000191;28;20030;-64
2023/07/05 04:58:15;;;;;;;9.25;4.10;;;;;;;;;;4999991;28;20396;-63
2023/07/05 05:00:45;;;;;;;10.05;4.45;;;;;;;;;;4999353;28;20069;-64
2023/07/05 05:03:12;;;;;;;8.35;4.03;;;;;;;;;;4999966;28;20108;-63
2023/07/05 05:05:38;;;;;;;7.38;3.85;;;;;;;;;;4995647;28;20528;-65
2023/07/05 05:08:04;;;;;;;9.20;4.22;;;;;;;;;;5019959;28;20088;-65
2023/07/05 05:10:30;;;;;;;10.25;4.25;;;;;;;;;;5002367;28;20084;-65
2023/07/05 05:12:56;;;;;;;7.57;4.40;;;;;;;;;;4993219;28;20034;-64
2023/07/05 05:15:22;;;;;;;8.60;3.97;;;;;;;;;;4993805;28;20097;-67
2023/07/05 05:17:49;;;;;;;7.45;4.30;;;;;;;;;;4999358;28;20034;-65
2023/07/05 05:20:16;;;;;;;11.23;4.82;;;;;;;;;;5001354;28;20042;-66
2023/07/05 05:22:43;;;;;;;9.68;3.92;;;;;;;;;;4992214;28;20070;-65
2023/07/05 05:25:09;;;;;;;7.85;3.70;;;;;;;;;;4991763;28;20045;-65
2023/07/05 05:27:35;;;;;;;8.35;3.90;;;;;;;;;;4997009;28;20165;-65
2023/07/05 05:30:01;;;;;;;9.27;3.72;;;;;;;;;;4990781;28;20469;-65
2023/07/05 05:32:27;;;;;;;8.10;4.03;;;;;;;;;;4994631;28;20122;-64
2023/07/05 05:34:54;;;;;;;9.60;4.35;;;;;;;;;;4993924;28;20396;-66
2023/07/05 05:37:20;;;;;;;6.97;4.25;;;;;;;;;;4993607;28;20034;-65
2023/07/05 05:39:46;;;;;;;10.68;5.07;;;;;;;;;;4995959;28;20045;-66
2023/07/05 05:42:12;;;;;;;8.15;4.50;;;;;;;;;;4997878;28;20120;-67
2023/07/05 05:44:38;;;;;;;8.90;4.63;;;;;;;;;;4999000;28;20042;-67
2023/07/05 05:47:04;;;;;;;8.20;5.00;;;;;;;;;;4994568;28;20407;-67
2023/07/05 05:49:30;;;;;;;9.52;5.22;;;;;;;;;;4993014;28;20038;-68
2023/07/05 05:51:57;;;;;;;10.82;5.97;;;;;;;;;;4991693;28;20045;-69
2023/07/05 05:54:23;;;;;;;8.80;5.13;;;;;;;;;;4998877;28;20042;-68
2023/07/05 05:56:49;;;;;;;8.73;5.30;;;;;;;;;;4995585;28;20404;-68
2023/07/05 05:59:15;;;;;;;10.43;5.57;;;;;;;;;;5004174;28;20034;-68
2023/07/05 06:01:44;;;;;;;8.60;5.05;;;;;;;;;;4995091;28;20117;-68
2023/07/05 06:04:11;;;;;;;10.20;5.28;;;;;;;;;;5002089;28;20254;-68
2023/07/05 06:06:37;;;;;;;9.65;4.72;;;;;;;;;;5002198;28;20124;-68
2023/07/05 06:09:04;;;;;;;8.52;4.75;;;;;;;;;;4998337;28;20045;-68
2023/07/05 06:11:30;;;;;;;9.13;4.82;;;;;;;;;;4994542;28;20113;-68
2023/07/05 06:13:56;;;;;;;9.98;5.35;;;;;;;;;;4995059;28;20097;-68
2023/07/05 06:16:22;;;;;;;9.13;5.00;;;;;;;;;;4997346;28;20031;-68
2023/07/05 06:18:48;;;;;;;9.80;4.47;;;;;;;;;;5001267;28;20093;-68
2023/07/05 06:21:14;;;;;;;7.70;4.25;;;;;;;;;;4982865;28;20078;-68
2023/07/05 06:23:40;;;;;;;7.80;3.90;;;;;;;;;;4995682;28;20695;-68
2023/07/05 06:26:06;;;;;;;8.38;4.20;;;;;;;;;;4994781;28;20045;-69
2023/07/05 06:28:33;;;;;;;7.40;4.28;;;;;;;;;;4994218;28;20050;-68
2023/07/05 06:31:06;;;;;;;7.70;3.60;;;;;;;;;;4999559;28;20511;-68
2023/07/05 06:33:32;;;;;;;9.35;4.60;;;;;;;;;;4993263;28;20401;-68
2023/07/05 06:36:02;;;;;;;6.15;3.65;;;;;;;;;;5000087;28;20140;-68
2023/07/05 06:38:29;;;;;;;8.43;4.03;;;;;;;;;;4995452;28;20065;-68
2023/07/05 06:40:56;;;;;;;7.65;3.72;;;;;;;;;;5002198;28;20112;-68
2023/07/05 06:43:23;;;;;;;8.00;3.88;;;;;;;;;;4997188;28;20049;-68
2023/07/05 06:45:53;;;;;;;9.13;3.90;;;;;;;;;;4996423;28;20672;-68
2023/07/05 06:48:19;;;;;;;7.28;2.70;;;;;;;;;;4992009;28;20100;-68
2023/07/05 06:50:49;;;;;;;8.73;3.42;;;;;;;;;;4996962;28;20105;-68
2023/07/05 06:53:15;;;;;;;7.80;3.92;;;;;;;;;;4988645;28;20050;-69
2023/07/05 06:55:41;;;;;;;6.47;3.35;;;;;;;;;;4994512;28;20309;-68
2023/07/05 06:58:07;;;;;;;6.75;2.60;;;;;;;;;;4993278;28;20093;-68
2023/07/05 07:00:33;;;;;;;7.93;2.72;;;;;;;;;;4995354;28;20104;-68
2023/07/05 07:03:00;;;;;;;5.40;2.35;;;;;;;;;;5001179;28;20077;-68
2023/07/05 07:05:26;;;;;;;6.90;2.47;;;;;;;;;;5001186;28;20463;-68
2023/07/05 07:07:52;;;;;;;11.85;2.70;;;;;;;;;;4989679;28;20598;-68
2023/07/05 07:10:18;;;;;;;7.20;2.90;;;;;;;;;;4999390;28;20057;-68
2023/07/05 07:12:44;;;;;;;8.05;2.85;;;;;;;;;;4995321;28;20042;-67
2023/07/05 07:15:13;;;;;;;7.10;2.63;;;;;;;;;;4996427;28;20042;-67
2023/07/05 07:17:39;;;;;;;7.82;2.72;;;;;;;;;;4989090;28;20042;-67
2023/07/05 07:20:06;;;;;;;8.85;2.45;;;;;;;;;;5166082;23;20081;-70
2023/07/05 07:22:32;;;;;;;6.60;2.92;;;;;;;;;;4990423;28;20046;-71
2023/07/05 07:24:58;;;;;;;6.50;3.05;;;;;;;;;;4974489;28;20047;-71
2023/07/05 07:27:25;;;;;;;8.75;2.50;;;;;;;;;;4972720;28;20049;-68
2023/07/05 07:29:52;;;;;;;5.90;2.58;;;;;;;;;;4990582;28;20105;-68
2023/07/05 07:32:18;;;;;;;7.40;1.95;;;;;;;;;;4984304;28;20041;-77
2023/07/05 07:34:44;;;;;;;5.55;1.50;;;;;;;;;;4975354;28;20047;-76
2023/07/05 07:37:10;;;;;;;6.32;1.90;;;;;;;;;;4978468;28;20037;-79
2023/07/05 07:39:37;;;;;;;5.22;1.50;;;;;;;;;;4992116;28;20129;-76
2023/07/05 07:42:03;;;;;;;5.38;1.55;;;;;;;;;;4985322;28;20034;-72
2023/07/05 07:44:29;;;;;;;4.00;1.50;;;;;;;;;;4989494;28;20105;-73
2023/07/05 07:46:57;;;;;;;4.57;1.50;;;;;;;;;;4989112;28;20038;-69
2023/07/05 07:49:23;;;;;;;4.32;1.10;;;;;;;;;;4973295;28;20043;-77
2023/07/05 07:51:49;;;;;;;4.38;1.40;;;;;;;;;;5029338;23;20449;-64
2023/07/05 07:54:28;;;;;;;4.72;1.10;;;;;;;;;;4957729;28;20034;-64
2023/07/05 07:56:55;;;;;;;4.43;1.38;;;;;;;;;;4951319;28;20090;-64
2023/07/05 07:59:21;;;;;;;6.07;1.30;;;;;;;;;;4946105;28;20462;-64
2023/07/05 08:01:48;;;;;;;5.68;1.60;;;;;;;;;;4948349;28;20066;-65
2023/07/05 08:04:14;;;;;;;5.47;1.88;;;;;;;;;;4941015;28;20039;-66
2023/07/05 08:06:42;;;;;;;4.15;1.17;;;;;;;;;;4942075;28;20115;-66
2023/07/05 08:09:11;;;;;;;3.80;1.17;;;;;;;;;;4939037;28;20058;-66
2023/07/05 08:11:38;;;;;;;5.10;1.10;;;;;;;;;;4945524;28;20043;-63
2023/07/05 08:14:05;;;;;;;3.25;1.20;;;;;;;;;;4943750;28;20044;-63
2023/07/05 08:16:31;;;;;;;4.60;1.33;;;;;;;;;;4934685;28;20043;-67
2023/07/05 08:18:57;;;;;;;5.43;1.85;;;;;;;;;;4935006;28;20102;-67
2023/07/05 08:21:23;;;;;;;5.18;1.25;;;;;;;;;;4938884;28;20043;-65
2023/07/05 08:23:49;;;;;;;3.92;1.30;;;;;;;;;;4940441;28;20094;-66
2023/07/05 08:26:15;;;;;;;5.38;1.50;;;;;;;;;;4941942;28;20035;-66
2023/07/05 08:28:42;;;;;;;4.05;1.25;;;;;;;;;;4947737;28;20058;-65
2023/07/05 08:31:08;;;;;;;5.88;1.40;;;;;;;;;;4935721;28;20420;-67
2023/07/05 08:33:35;;;;;;;6.60;2.33;;;;;;;;;;4943154;28;20405;-65
2023/07/05 08:36:30;;;;;;;4.90;1.45;;;;;;;;;;4986584;23;20463;-64
2023/07/05 08:38:56;;;;;;;8.50;2.40;;;;;;;;;;4981252;28;20129;-64
2023/07/05 08:41:34;;;;;;;7.50;1.83;;;;;;;;;;4988262;28;20477;-63
2023/07/05 08:44:19;;;;;;;6.22;1.73;;;;;;;;;;4981530;28;20093;-64
2023/07/05 08:46:46;;;;;;;13.18;3.38;;;;;;;;;;4969473;28;20054;-65
2023/07/05 08:49:15;;;;;;;9.20;2.85;;;;;;;;;;4969378;28;20535;-65
2023/07/05 08:51:42;;;;;;;8.95;2.90;;;;;;;;;;4974182;28;20046;-64
2023/07/05 08:54:12;;;;;;;9.57;2.45;;;;;;;;;;4969231;28;20126;-64
2023/07/05 08:56:41;;;;;;;9.23;2.33;;;;;;;;;;4968645;28;20042;-64
2023/07/05 08:59:14;;;;;;;10.80;2.80;;;;;;;;;;4968791;28;20047;-64
2023/07/05 09:01:42;;;;;;;8.50;2.53;;;;;;;;;;4968359;28;20323;-65
2023/07/05 09:04:12;;;;;;;16.92;3.47;;;;;;;;;;4965508;28;20100;-64
2023/07/05 09:06:52;;;;;;;12.98;3.10;;;;;;;;;;4966957;28;20107;-64
2023/07/05 09:09:24;;;;;;;9.13;2.70;;;;;;;;;;4962279;28;20043;-66
2023/07/05 09:11:53;;;;;;;12.65;3.40;;;;;;;;;;4976611;28;20133;-65
2023/07/05 09:14:40;;;;;;;9.18;2.97;;;;;;;;;;4973231;28;20038;-66
2023/07/05 09:17:26;;;;;;;8.45;2.38;;;;;;;;;;4970132;28;20043;-65
2023/07/05 09:19:56;;;;;;;10.05;2.40;;;;;;;;;;4959405;28;20054;-65
2023/07/05 09:22:24;;;;;;;8.13;2.00;;;;;;;;;;4961341;28;20050;-67
2023/07/05 09:24:50;;;;;;;6.38;2.10;;;;;;;;;;4967711;28;20409;-65
2023/07/05 09:27:16;;;;;;;6.70;1.80;;;;;;;;;;4964660;28;20141;-66
2023/07/05 09:29:42;;;;;;;6.35;2.00;;;;;;;;;;4964394;28;20045;-65
2023/07/05 09:32:11;;;;;;;7.10;2.17;;;;;;;;;;4967181;28;20027;-66
2023/07/05 09:34:46;;;;;;;5.10;1.50;;;;;;;;;;4994425;28;20115;-67
2023/07/05 09:37:22;;;;;;;4.53;1.70;;;;;;;;;;4968596;28;20038;-68
2023/07/05 09:40:04;;;;;;;5.57;1.20;;;;;;;;;;4968561;28;20047;-68
2023/07/05 09:42:34;;;;;;;5.53;1.40;;;;;;;;;;4970325;28;20078;-67
2023/07/05 09:45:00;;;;;;;5.57;1.48;;;;;;;;;;4965105;28;20045;-70
2023/07/05 09:47:26;;;;;;;5.63;1.33;;;;;;;;;;4971474;28;20413;-69
2023/07/05 09:49:52;;;;;;;6.00;1.20;;;;;;;;;;4971207;28;20073;-69
2023/07/05 09:52:22;;;;;;;3.10;1.00;;;;;;;;;;4971633;28;20038;-69
2023/07/05 09:54:50;;;;;;;4.85;1.20;;;;;;;;;;4971475;28;20061;-69
2023/07/05 09:57:22;;;;;;;3.30;1.00;;;;;;;;;;5003111;28;20042;-70
2023/07/05 09:59:50;;;;;;;3.83;0.90;;;;;;;;;;4973893;28;20043;-69
2023/07/05 10:02:22;;;;;;;3.97;1.00;;;;;;;;;;4980197;28;20051;-69
2023/07/05 10:04:49;;;;;;;4.72;1.00;;;;;;;;;;4966245;28;20035;-69
2023/07/05 10:07:17;;;;;;;12.65;1.52;;;;;;;;;;4970689;28;20035;-69
2023/07/05 10:10:05;;;;;;;2.97;1.27;;;;;;;;;;4981728;28;20047;-69
2023/07/05 10:12:35;;;;;;;5.28;0.68;;;;;;;;;;4972532;28;20043;-68
2023/07/05 10:15:02;;;;;;;3.95;1.00;;;;;;;;;;4958690;28;20500;-69
2023/07/05 10:17:40;;;;;;;4.63;1.00;;;;;;;;;;4973170;28;20186;-69
2023/07/05 10:20:07;;;;;;;6.70;1.45;;;;;;;;;;4968693;28;20493;-68
2023/07/05 10:22:33;;;;;;;4.78;0.90;;;;;;;;;;4963256;28;20039;-70
2023/07/05 10:25:15;;;;;;;4.60;1.25;;;;;;;;;;4979616;28;20030;-68
2023/07/05 10:27:45;;;;;;;3.30;0.80;;;;;;;;;;4968450;28;20043;-68
2023/07/05 10:30:13;;;;;;;3.50;0.85;;;;;;;;;;4971441;28;20061;-68
2023/07/05 10:32:43;;;;;;;2.90;0.93;;;;;;;;;;4967430;28;20072;-68
2023/07/05 10:35:19;;;;;;;4.05;1.00;;;;;;;;;;4966427;28;20065;-68
2023/07/05 10:37:45;;;;;;;2.90;0.88;;;;;;;;;;4971987;28;20050;-68
2023/07/05 10:40:11;;;;;;;4.57;0.93;;;;;;;;;;4959256;28;20039;-68
2023/07/05 10:42:38;;;;;;;4.97;1.10;;;;;;;;;;4963884;28;22184;-68
2023/07/05 10:45:04;;;;;;;3.47;0.80;;;;;;;;;;4971449;28;20046;-68
2023/07/05 10:47:32;;;;;;;5.78;1.17;;;;;;;;;;4970711;28;20057;-69
2023/07/05 10:50:02;;;;;;;3.85;1.02;;;;;;;;;;4970422;28;20511;-68
2023/07/05 10:52:31;;;;;;;6.75;1.20;;;;;;;;;;4970863;28;20057;-68
2023/07/05 10:55:10;;;;;;;6.50;1.25;;;;;;;;;;4965330;28;20043;-68
2023/07/05 10:57:42;;;;;;;6.82;1.77;;;;;;;;;;4966817;28;20520;-68
2023/07/05 11:00:21;;;;;;;6.53;1.50;;;;;;;;;;4978191;28;20100;-68
2023/07/05 11:02:55;;;;;;;4.78;1.20;;;;;;;;;;4983306;28;20263;-68
2023/07/05 11:05:21;;;;;;;;;;;;;;;;;;4985101;28;20089;-68
2023/07/05 11:07:50;;;;;;;7.57;1.40;;;;;;;;;;4972419;28;19917;-68
2023/07/05 11:10:16;;;;;;;7.43;1.30;;;;;;;;;;4982208;28;20400;-68
2023/07/05 11:12:42;;;;;;;4.45;1.35;;;;;;;;;;4978839;28;20516;-68
2023/07/05 11:15:15;;;;;;;8.27;1.98;;;;;;;;;;4970465;28;20035;-68
2023/07/05 11:17:42;;;;;;;8.52;1.73;;;;;;;;;;4970490;28;20057;-68
2023/07/05 11:20:27;;;;;;;5.03;1.38;;;;;;;;;;4970309;28;20042;-67
2023/07/05 11:22:53;;;;;;;5.07;1.48;;;;;;;;;;4969820;28;20559;-68
2023/07/05 11:25:19;;;;;;;8.57;1.70;;;;;;;;;;4977169;28;20089;-68
2023/07/05 11:27:50;;;;;;;9.57;1.80;;;;;;;;;;4971296;28;20467;-68
2023/07/05 11:30:35;;;;;;;8.82;2.45;;;;;;;;;;4976996;28;20046;-69
2023/07/05 11:33:01;;;;;;;;;;;;;;;;;;5008537;23;20061;-62
2023/07/05 11:35:45;;;;;;;9.68;2.30;;;;;;;;;;5006946;28;19961;-62
2023/07/05 11:38:11;;;;;;;;;;;;;;;;;;5005047;28;20038;-61
2023/07/05 11:41:00;;;;;;;13.90;3.15;;;;;;;;;;5001565;28;19928;-61
2023/07/05 11:43:27;;;;;;;15.38;3.25;;;;;;;;;;5004325;28;20103;-61
2023/07/05 11:45:53;;;;;;;17.38;3.50;;;;;;;;;;5007590;28;20041;-61
2023/07/05 11:48:38;;;;;;;12.32;3.85;;;;;;;;;;4981728;28;20038;-62
2023/07/05 11:51:09;;;;;;;15.10;3.80;;;;;;;;;;4995216;28;20056;-61
2023/07/05 11:53:35;;;;;;;10.20;2.67;;;;;;;;;;4996531;28;20038;-61
2023/07/05 11:56:02;;;;;;;21.23;4.15;;;;;;;;;;4995607;28;20029;-61
2023/07/05 11:58:30;;;;;;;15.30;3.60;;;;;;;;;;5000792;28;20125;-61
2023/07/05 12:01:00;;;;;;;11.90;2.58;;;;;;;;;;5001253;28;20050;-62
2023/07/05 12:03:28;;;;;;;14.95;4.07;;;;;;;;;;5004404;28;20038;-62
2023/07/05 12:08:43;;;;;;;16.50;4.40;;;;;;;;;;4985413;28;20123;-65
2023/07/05 12:11:11;;;;;;;11.43;3.13;;;;;;;;;;4988124;28;20090;-64
2023/07/05 12:13:37;;;;;;;13.35;2.92;;;;;;;;;;4993161;28;20627;-65
2023/07/05 12:16:05;;;;;;;8.23;2.28;;;;;;;;;;4979192;28;20038;-66
2023/07/05 12:18:32;;;;;;;10.07;2.70;;;;;;;;;;4983345;28;20114;-65
2023/07/05 12:20:58;;;;;;;9.65;2.63;;;;;;;;;;4972032;28;20062;-66
2023/07/05 12:23:28;;;;;;;10.93;2.47;;;;;;;;;;4972189;28;20098;-66
2023/07/05 12:25:55;;;;;;;15.52;3.30;;;;;;;;;;4976337;28;20408;-65
2023/07/05 12:28:23;;;;;;;8.88;3.30;;;;;;;;;;4979863;28;20415;-64
2023/07/05 12:30:49;;;;;;;12.52;2.92;;;;;;;;;;4981965;28;20039;-64
2023/07/05 12:33:22;;;;;;;9.75;3.15;;;;;;;;;;4970797;28;20421;-62
2023/07/05 12:36:04;;;;;;;15.02;4.20;;;;;;;;;;4976618;28;20031;-66
2023/07/05 12:38:30;;;;;;;11.70;3.97;;;;;;;;;;4972972;28;20050;-65
2023/07/05 12:40:58;;;;;;;17.95;3.33;;;;;;;;;;4971512;28;20122;-66
2023/07/05 12:43:28;;;;;;;16.17;3.50;;;;;;;;;;5001052;23;20042;-65
2023/07/05 12:46:05;;;;;;;16.50;3.38;;;;;;;;;;4994768;28;20045;-66
2023/07/05 12:48:31;;;;;;;15.57;4.10;;;;;;;;;;4985369;28;20045;-66
2023/07/05 12:51:04;;;;;;;13.50;3.70;;;;;;;;;;4986962;28;20051;-68
2023/07/05 12:53:30;;;;;;;13.57;3.35;;;;;;;;;;4982187;28;20042;-68
2023/07/05 12:55:58;;;;;;;15.48;4.57;;;;;;;;;;4984258;28;20404;-68
2023/07/05 12:58:26;;;;;;;11.40;4.10;;;;;;;;;;4992544;28;20042;-66
2023/07/05 13:00:53;;;;;;;14.68;4.03;;;;;;;;;;4983705;28;20085;-66
2023/07/05 13:03:19;;;;;;;25.75;5.70;;;;;;;;;;4980831;28;20065;-66
2023/07/05 13:05:45;;;;;;;14.55;3.95;;;;;;;;;;4984648;28;20080;-66
2023/07/05 13:08:15;;;;;;;19.02;4.28;;;;;;;;;;4986034;28;20588;-66
2023/07/05 13:10:42;;;;;;;17.38;4.55;;;;;;;;;;4978720;28;20038;-66
2023/07/05 13:13:20;;;;;;;23.40;5.72;;;;;;;;;;4984513;28;20487;-67
2023/07/05 13:15:46;;;;;;;19.17;4.43;;;;;;;;;;4984082;28;20449;-67
2023/07/05 13:18:21;;;;;;;9.95;3.67;;;;;;;;;;5128938;23;20046;-65
2023/07/05 13:20:48;;;;;;;20.02;4.30;;;;;;;;;;4994576;28;20066;-65
2023/07/05 13:23:14;;;;;;;20.42;5.00;;;;;;;;;;4989884;28;20038;-65
2023/07/05 13:25:44;;;;;;;14.30;3.53;;;;;;;;;;4970886;28;20035;-65
2023/07/05 13:28:25;;;;;;;21.52;4.80;;;;;;;;;;4969368;28;20548;-66
2023/07/05 13:30:52;;;;;;;18.45;4.38;;;;;;;;;;4967567;28;20531;-66
2023/07/05 13:33:20;;;;;;;14.13;4.18;;;;;;;;;;4973315;28;20098;-65
2023/07/05 13:35:46;;;;;;;22.67;5.38;;;;;;;;;;4963944;28;20046;-66
2023/07/05 13:38:13;;;;;;;19.48;4.93;;;;;;;;;;4972074;28;20038;-64
2023/07/05 13:40:48;;;;;;;20.15;5.32;;;;;;;;;;4969915;28;20050;-65
2023/07/05 13:43:16;;;;;;;13.57;5.18;;;;;;;;;;4965311;28;20113;-64
2023/07/05 13:45:42;;;;;;;20.58;6.38;;;;;;;;;;4964957;28;20047;-63
2023/07/05 13:48:08;;;;;;;15.20;4.40;;;;;;;;;;4972321;28;20130;-65
2023/07/05 13:50:34;;;;;;;17.33;3.90;;;;;;;;;;4971838;28;20054;-64
2023/07/05 13:53:01;;;;;;;17.40;3.75;;;;;;;;;;4972278;28;20049;-65
2023/07/05 13:55:27;;;;;;;15.45;5.03;;;;;;;;;;4974604;28;20050;-64
2023/07/05 13:57:56;;;;;;;14.18;4.20;;;;;;;;;;4972040;28;20049;-65
2023/07/05 14:00:28;;;;;;;15.95;3.88;;;;;;;;;;4962240;28;20089;-64
2023/07/05 14:02:54;;;;;;;15.45;4.35;;;;;;;;;;4964725;28;20046;-66
2023/07/05 14:05:27;;;;;;;15.00;2.92;;;;;;;;;;4967394;28;20035;-65
2023/07/05 14:07:54;;;;;;;11.85;3.90;;;;;;;;;;4968605;28;20401;-64
2023/07/05 14:10:21;;;;;;;9.85;3.08;;;;;;;;;;4968809;28;20464;-63
2023/07/05 14:12:47;;;;;;;10.18;2.42;;;;;;;;;;4971132;28;20034;-64
2023/07/05 14:15:31;;;;;;;11.48;3.25;;;;;;;;;;4972407;28;20501;-64
2023/07/05 14:17:57;;;;;;;10.88;3.78;;;;;;;;;;4968734;28;20101;-65
2023/07/05 14:20:25;;;;;;;10.27;3.20;;;;;;;;;;4970400;28;20042;-64
2023/07/05 14:22:51;;;;;;;10.05;2.88;;;;;;;;;;4969671;28;20109;-64
2023/07/05 14:25:21;;;;;;;12.00;3.08;;;;;;;;;;4970594;28;20038;-64
2023/07/05 14:27:48;;;;;;;8.88;3.15;;;;;;;;;;4968934;28;20053;-65
2023/07/05 14:30:16;;;;;;;9.50;2.78;;;;;;;;;;4971301;28;20043;-65
2023/07/05 14:32:43;;;;;;;8.05;2.90;;;;;;;;;;4969978;28;20122;-65
2023/07/05 14:35:16;;;;;;;5.93;1.80;;;;;;;;;;4948917;28;20045;-65
2023/07/05 14:37:46;;;;;;;6.32;2.63;;;;;;;;;;4972823;28;20045;-65
2023/07/05 14:40:13;;;;;;;7.55;2.40;;;;;;;;;;4964456;28;20130;-65
2023/07/05 14:42:40;;;;;;;10.98;2.65;;;;;;;;;;4954367;28;20154;-65
2023/07/05 14:45:20;;;;;;;11.15;2.65;;;;;;;;;;4970953;28;20038;-65
2023/07/05 14:47:54;;;;;;;11.05;2.70;;;;;;;;;;4968393;28;20042;-65
2023/07/05 14:50:20;;;;;;;12.60;4.20;;;;;;;;;;4970975;28;20043;-65